createdAt,value
2022-12-25T00:01:11.394Z,10.30
2022-12-25T00:04:14.466Z,9.02
2022-12-25T00:07:17.339Z,8.95
2022-12-25T00:10:20.473Z,10.38
2022-12-25T00:13:23.021Z,10.15
2022-12-25T00:16:26.845Z,9.90
2022-12-25T00:19:29.643Z,10.75
2022-12-25T00:22:32.567Z,13.32
2022-12-25T00:25:35.226Z,10.95
2022-12-25T00:28:38.568Z,17.40
2022-12-25T00:31:41.382Z,14.67
2022-12-25T00:34:44.240Z,16.60
2022-12-25T00:37:46.876Z,10.60
2022-12-25T00:40:49.884Z,12.15
2022-12-25T00:43:52.453Z,9.52
2022-12-25T00:46:55.308Z,15.10
2022-12-25T00:49:57.875Z,12.40
2022-12-25T00:53:00.615Z,9.60
2022-12-25T00:56:05.567Z,10.15
2022-12-25T00:59:08.477Z,10.90
2022-12-25T01:02:30.285Z,9.50
2022-12-25T01:05:33.330Z,10.52
2022-12-25T01:08:37.987Z,8.80
2022-12-25T01:11:40.901Z,10.25
2022-12-25T01:14:44.017Z,10.77
2022-12-25T01:17:46.973Z,10.77
2022-12-25T01:20:49.597Z,11.10
2022-12-25T01:23:53.684Z,11.27
2022-12-25T01:26:56.373Z,12.52
2022-12-25T01:29:59.504Z,8.38
2022-12-25T01:33:02.070Z,10.57
2022-12-25T01:36:12.585Z,10.90
2022-12-25T01:39:15.380Z,11.15
2022-12-25T01:42:21.936Z,9.80
2022-12-25T01:45:36.611Z,10.75
2022-12-25T01:48:40.293Z,8.73
2022-12-25T01:51:50.430Z,11.52
2022-12-25T01:54:56.436Z,10.50
2022-12-25T01:57:58.984Z,11.82
2022-12-25T02:01:02.052Z,12.05
2022-12-25T02:04:09.528Z,12.20
2022-12-25T02:07:22.211Z,12.00
2022-12-25T02:10:25.513Z,11.82
2022-12-25T02:13:29.123Z,9.65
2022-12-25T02:16:35.356Z,10.65
2022-12-25T02:20:10.220Z,15.23
2022-12-25T02:23:40.972Z,13.82
2022-12-25T02:27:03.295Z,11.20
2022-12-25T02:30:10.579Z,14.98
2022-12-25T02:33:40.257Z,13.27
2022-12-25T02:36:58.381Z,11.27
2022-12-25T02:40:17.479Z,9.43
2022-12-25T02:43:48.176Z,9.77
2022-12-25T02:47:10.254Z,10.70
2022-12-25T02:50:33.535Z,9.35
2022-12-25T02:53:55.276Z,8.40
2022-12-25T02:57:18.800Z,9.80
2022-12-25T03:00:40.191Z,14.82
2022-12-25T03:04:03.436Z,9.75
2022-12-25T03:07:17.417Z,12.98
2022-12-25T03:10:39.283Z,9.17
2022-12-25T03:13:43.545Z,6.60
2022-12-25T03:16:51.267Z,11.85
2022-12-25T03:20:22.889Z,5.90
2022-12-25T03:23:48.182Z,8.30
2022-12-25T03:26:56.896Z,11.70
2022-12-25T03:30:18.800Z,8.40
2022-12-25T03:33:50.486Z,14.00
2022-12-25T03:37:22.771Z,14.80
2022-12-25T03:40:53.196Z,10.05
2022-12-25T03:44:22.469Z,11.10
2022-12-25T03:47:35.196Z,12.50
2022-12-25T03:51:13.384Z,13.13
2022-12-25T03:54:38.059Z,7.87
2022-12-25T03:58:00.241Z,11.77
2022-12-25T04:01:21.436Z,10.57
2022-12-25T04:04:43.199Z,14.02
2022-12-25T04:08:04.738Z,12.23
2022-12-25T04:11:26.257Z,11.07
2022-12-25T04:14:47.458Z,11.20
2022-12-25T04:18:11.188Z,11.43
2022-12-25T04:21:32.807Z,7.93
2022-12-25T04:24:54.280Z,7.80
2022-12-25T04:28:20.573Z,10.25
2022-12-25T04:31:41.863Z,11.05
2022-12-25T04:35:03.436Z,9.13
2022-12-25T04:38:06.481Z,9.48
2022-12-25T04:41:11.783Z,9.38
2022-12-25T04:44:14.672Z,9.27
2022-12-25T04:47:17.279Z,10.02
2022-12-25T04:50:20.165Z,10.83
2022-12-25T04:53:23.065Z,9.52
2022-12-25T04:56:25.858Z,11.00
2022-12-25T04:59:28.586Z,10.88
2022-12-25T05:02:31.968Z,10.80
2022-12-25T05:05:34.724Z,10.97
2022-12-25T05:08:37.751Z,8.73
2022-12-25T05:11:40.519Z,12.85
2022-12-25T05:14:43.423Z,10.32
2022-12-25T05:17:45.980Z,10.98
2022-12-25T05:20:53.648Z,8.83
2022-12-25T05:23:56.254Z,9.60
2022-12-25T05:26:59.140Z,7.82
2022-12-25T05:30:01.922Z,10.18
2022-12-25T05:33:05.157Z,7.57
2022-12-25T05:36:09.214Z,9.73
2022-12-25T05:39:12.063Z,7.62
2022-12-25T05:42:14.759Z,9.68
2022-12-25T05:45:17.568Z,10.20
2022-12-25T05:48:20.343Z,9.57
2022-12-25T05:51:23.536Z,8.60
2022-12-25T05:54:26.089Z,7.75
2022-12-25T05:57:29.533Z,7.47
2022-12-25T06:00:32.273Z,9.52
2022-12-25T06:03:35.853Z,8.52
2022-12-25T06:06:38.336Z,6.07
2022-12-25T06:09:41.413Z,7.68
2022-12-25T06:12:43.916Z,9.20
2022-12-25T06:15:46.797Z,11.45
2022-12-25T06:18:54.213Z,9.95
2022-12-25T06:21:57.126Z,8.67
2022-12-25T06:24:59.814Z,8.43
2022-12-25T06:28:02.883Z,10.10
2022-12-25T06:31:07.598Z,9.20
2022-12-25T06:34:10.738Z,10.77
2022-12-25T06:37:13.327Z,13.80
2022-12-25T06:40:16.431Z,12.13
2022-12-25T06:43:19.105Z,12.37
2022-12-25T06:46:23.042Z,8.80
2022-12-25T06:49:25.898Z,9.57
2022-12-25T06:52:28.632Z,12.40
2022-12-25T06:55:31.148Z,12.50
2022-12-25T06:58:34.091Z,14.30
2022-12-25T07:01:47.126Z,17.75
2022-12-25T07:04:50.219Z,10.48
2022-12-25T07:07:52.922Z,12.97
2022-12-25T07:10:56.020Z,15.00
2022-12-25T07:13:58.974Z,11.60
2022-12-25T07:17:02.452Z,16.00
2022-12-25T07:20:07.027Z,10.43
2022-12-25T07:23:09.933Z,17.57
2022-12-25T07:26:13.055Z,18.85
2022-12-25T07:29:16.475Z,20.95
2022-12-25T07:32:19.540Z,16.12
2022-12-25T07:35:23.030Z,18.45
2022-12-25T07:38:25.679Z,13.93
2022-12-25T07:41:28.584Z,20.70
2022-12-25T07:44:31.512Z,26.33
2022-12-25T07:47:34.376Z,22.23
2022-12-25T07:50:37.236Z,18.87
2022-12-25T07:53:40.773Z,23.20
2022-12-25T07:56:43.330Z,22.77
2022-12-25T07:59:46.243Z,17.33
2022-12-25T08:02:50.206Z,17.58
2022-12-25T08:05:53.185Z,16.30
2022-12-25T08:08:57.175Z,14.03
2022-12-25T08:12:00.264Z,12.65
2022-12-25T08:15:02.739Z,10.10
2022-12-25T08:18:05.599Z,17.77
2022-12-25T08:21:13.281Z,22.05
2022-12-25T08:24:16.202Z,15.83
2022-12-25T08:27:18.721Z,10.80
2022-12-25T08:30:21.554Z,9.25
2022-12-25T08:33:24.197Z,11.35
2022-12-25T08:36:27.513Z,10.93
2022-12-25T08:39:30.263Z,24.63
2022-12-25T08:42:33.053Z,27.08
2022-12-25T08:45:35.646Z,31.55
2022-12-25T08:48:39.307Z,26.40
2022-12-25T08:51:44.649Z,15.75
2022-12-25T08:54:47.499Z,20.33
2022-12-25T08:57:52.714Z,21.42
2022-12-25T09:00:56.356Z,27.25
2022-12-25T09:03:59.534Z,15.40
2022-12-25T09:07:02.731Z,22.25
2022-12-25T09:10:05.840Z,27.67
2022-12-25T09:13:09.988Z,20.42
2022-12-25T09:16:16.356Z,22.02
2022-12-25T09:19:19.716Z,14.48
2022-12-25T09:22:22.278Z,12.13
2022-12-25T09:25:25.273Z,13.27
2022-12-25T09:28:28.279Z,10.73
2022-12-25T09:31:31.258Z,10.50
2022-12-25T09:34:34.595Z,15.73
2022-12-25T09:37:37.944Z,20.90
2022-12-25T09:40:41.401Z,26.10
2022-12-25T09:43:54.647Z,30.10
2022-12-25T09:47:06.021Z,21.87
2022-12-25T09:50:21.126Z,21.35
2022-12-25T09:53:28.846Z,19.50
2022-12-25T09:56:32.621Z,11.27
2022-12-25T09:59:35.232Z,13.68
2022-12-25T10:02:47.555Z,18.45
2022-12-25T10:06:19.672Z,20.50
2022-12-25T10:09:25.254Z,15.32
2022-12-25T10:12:53.721Z,14.53
2022-12-25T10:16:12.610Z,14.50
2022-12-25T10:19:53.782Z,12.90
2022-12-25T10:23:00.555Z,10.75
2022-12-25T10:26:04.489Z,14.13
2022-12-25T10:29:14.127Z,13.90
2022-12-25T10:32:17.144Z,13.27
2022-12-25T10:35:22.424Z,11.18
2022-12-25T10:38:25.523Z,16.65
2022-12-25T10:42:07.145Z,12.27
2022-12-25T10:45:10.479Z,16.60
2022-12-25T10:48:23.153Z,20.20
2022-12-25T10:51:37.866Z,12.63
2022-12-25T10:54:40.490Z,8.38
2022-12-25T10:57:47.264Z,9.40
2022-12-25T11:01:08.238Z,11.97
2022-12-25T11:04:21.822Z,12.30
2022-12-25T11:07:25.660Z,11.00
2022-12-25T11:10:37.356Z,10.93
2022-12-25T11:13:48.843Z,8.95
2022-12-25T11:16:51.745Z,8.97
2022-12-25T11:20:01.267Z,7.97
2022-12-25T11:23:10.604Z,7.78
2022-12-25T11:26:13.406Z,8.75
2022-12-25T11:29:25.478Z,8.63
2022-12-25T11:32:38.226Z,10.00
2022-12-25T11:35:49.131Z,9.05
2022-12-25T11:38:52.255Z,10.35
2022-12-25T11:42:03.887Z,8.25
2022-12-25T11:45:17.247Z,9.07
2022-12-25T11:48:32.286Z,7.67
2022-12-25T11:51:37.564Z,11.05
2022-12-25T11:54:52.062Z,6.60
2022-12-25T11:58:01.613Z,9.68
2022-12-25T12:01:09.179Z,7.53
2022-12-25T12:04:36.918Z,8.33
2022-12-25T12:07:52.344Z,10.95
2022-12-25T12:11:18.720Z,10.95
2022-12-25T12:14:21.209Z,17.92
2022-12-25T12:17:24.287Z,8.50
2022-12-25T12:20:30.118Z,10.13
2022-12-25T12:23:54.359Z,8.48
2022-12-25T12:27:06.072Z,11.02
2022-12-25T12:30:24.200Z,9.25
2022-12-25T12:33:31.127Z,6.90
2022-12-25T12:36:36.576Z,7.30
2022-12-25T12:39:40.709Z,7.60
2022-12-25T12:42:50.386Z,6.07
2022-12-25T12:46:13.231Z,5.95
2022-12-25T12:49:22.453Z,8.82
2022-12-25T12:52:35.594Z,7.97
2022-12-25T12:55:38.380Z,7.62
2022-12-25T12:58:50.038Z,6.65
2022-12-25T13:02:08.379Z,7.87
2022-12-25T13:05:34.466Z,6.20
2022-12-25T13:08:45.865Z,7.10
2022-12-25T13:11:49.364Z,9.57
2022-12-25T13:14:52.766Z,7.78
2022-12-25T13:17:58.063Z,7.40
2022-12-25T13:21:02.764Z,6.90
2022-12-25T13:24:20.572Z,8.93
2022-12-25T13:27:26.412Z,6.30
2022-12-25T13:30:29.220Z,5.05
2022-12-25T13:33:32.196Z,5.90
2022-12-25T13:36:38.620Z,6.12
2022-12-25T13:40:01.620Z,11.17
2022-12-25T13:43:05.161Z,9.98
2022-12-25T13:46:08.072Z,6.62
2022-12-25T13:49:19.513Z,7.30
2022-12-25T13:52:34.145Z,8.93
2022-12-25T13:55:36.983Z,13.53
2022-12-25T13:58:40.145Z,11.18
2022-12-25T14:01:43.896Z,13.68
2022-12-25T14:04:49.451Z,8.73
2022-12-25T14:07:53.560Z,11.48
2022-12-25T14:10:56.979Z,12.80
2022-12-25T14:14:05.926Z,14.68
2022-12-25T14:17:10.507Z,17.92
2022-12-25T14:20:37.244Z,16.00
2022-12-25T14:23:45.421Z,14.45
2022-12-25T14:26:47.961Z,15.60
2022-12-25T14:29:53.205Z,15.68
2022-12-25T14:32:56.500Z,10.50
2022-12-25T14:35:59.571Z,13.05
2022-12-25T14:39:05.511Z,14.68
2022-12-25T14:42:18.233Z,16.03
2022-12-25T14:45:25.846Z,21.58
2022-12-25T14:48:30.746Z,23.55
2022-12-25T14:51:35.452Z,25.45
2022-12-25T14:54:38.533Z,18.98
2022-12-25T14:57:41.303Z,25.17
2022-12-25T15:00:44.650Z,23.77
2022-12-25T15:03:49.235Z,26.10
2022-12-25T15:07:24.421Z,27.62
2022-12-25T15:13:50.374Z,18.93
2022-12-25T15:16:55.782Z,16.73
2022-12-25T15:20:00.323Z,22.02
2022-12-25T15:23:19.368Z,14.95
2022-12-25T15:26:23.501Z,22.05
2022-12-25T15:29:59.717Z,18.53
2022-12-25T15:32:49.094Z,16.67
2022-12-25T15:35:52.001Z,18.95
2022-12-25T15:38:55.299Z,20.75
2022-12-25T15:42:12.967Z,12.98
2022-12-25T15:45:27.073Z,14.00
2022-12-25T15:48:29.903Z,12.27
2022-12-25T15:51:33.427Z,14.30
2022-12-25T15:54:36.065Z,16.60
2022-12-25T15:57:41.823Z,20.05
2022-12-25T16:00:44.565Z,22.53
2022-12-25T16:03:47.801Z,24.42
2022-12-25T16:06:50.610Z,24.25
2022-12-25T16:09:53.549Z,26.27
2022-12-25T16:12:56.064Z,23.85
2022-12-25T16:15:59.082Z,19.67
2022-12-25T16:19:01.717Z,18.55
2022-12-25T16:22:14.290Z,17.02
2022-12-25T16:25:19.377Z,17.00
2022-12-25T16:28:22.237Z,14.40
2022-12-25T16:31:25.534Z,15.37
2022-12-25T16:34:28.625Z,16.23
2022-12-25T16:37:31.241Z,17.37
2022-12-25T16:40:34.319Z,18.30
2022-12-25T16:43:37.287Z,19.55
2022-12-25T16:46:40.623Z,18.70
2022-12-25T16:49:43.318Z,17.02
2022-12-25T16:52:46.161Z,18.17
2022-12-25T16:55:48.667Z,17.52
2022-12-25T16:58:51.971Z,20.20
2022-12-25T17:01:54.707Z,18.53
2022-12-25T17:04:58.272Z,17.65
2022-12-25T17:08:01.062Z,18.87
2022-12-25T17:11:05.062Z,14.87
2022-12-25T17:14:07.906Z,20.45
2022-12-25T17:17:10.800Z,14.50
2022-12-25T17:20:13.477Z,20.17
2022-12-25T17:23:16.245Z,19.12
2022-12-25T17:26:18.859Z,16.60
2022-12-25T17:29:22.573Z,20.77
2022-12-25T17:32:25.580Z,21.17
2022-12-25T17:35:29.265Z,15.77
2022-12-25T17:38:33.412Z,21.35
2022-12-25T17:41:36.522Z,23.85
2022-12-25T17:44:39.176Z,23.00
2022-12-25T17:47:42.044Z,22.57
2022-12-25T17:50:47.358Z,25.77
2022-12-25T17:53:52.800Z,24.60
2022-12-25T17:56:58.363Z,27.42
2022-12-25T18:00:01.573Z,27.35
2022-12-25T18:03:11.529Z,19.87
2022-12-25T18:06:17.854Z,22.50
2022-12-25T18:09:20.394Z,16.12
2022-12-25T18:12:23.295Z,17.55
2022-12-25T18:15:25.849Z,18.12
2022-12-25T18:18:29.205Z,20.53
2022-12-25T18:21:32.053Z,17.33
2022-12-25T18:24:35.127Z,21.12
2022-12-25T18:27:37.842Z,21.02
2022-12-25T18:30:42.243Z,20.52
2022-12-25T18:33:45.930Z,20.77
2022-12-25T18:36:49.050Z,18.27
2022-12-25T18:39:51.674Z,20.40
2022-12-25T18:43:01.096Z,20.08
2022-12-25T18:46:06.426Z,21.92
2022-12-25T18:49:11.012Z,19.40
2022-12-25T18:52:48.867Z,18.23
2022-12-25T18:55:40.491Z,19.55
2022-12-25T18:58:43.900Z,17.05
2022-12-25T19:01:46.886Z,20.77
2022-12-25T19:04:49.843Z,19.63
2022-12-25T19:07:52.693Z,21.23
2022-12-25T19:10:55.285Z,21.62
2022-12-25T19:13:58.791Z,22.60
2022-12-25T19:17:01.407Z,21.20
2022-12-25T19:20:06.104Z,26.60
2022-12-25T19:23:09.488Z,24.60
2022-12-25T19:26:12.517Z,24.63
2022-12-25T19:29:15.687Z,27.95
2022-12-25T19:32:18.479Z,25.17
2022-12-25T19:35:21.195Z,23.30
2022-12-25T19:38:24.255Z,22.45
2022-12-25T19:41:27.037Z,23.98
2022-12-25T19:44:30.149Z,27.02
2022-12-25T19:47:32.765Z,27.42
2022-12-25T19:50:35.742Z,25.57
2022-12-25T19:53:38.892Z,26.30
2022-12-25T19:56:42.901Z,25.77
2022-12-25T19:59:45.577Z,25.67
2022-12-25T20:02:48.540Z,27.52
2022-12-25T20:05:52.468Z,21.63
2022-12-25T20:08:57.491Z,27.08
2022-12-25T20:12:00.383Z,28.05
2022-12-25T20:15:03.300Z,25.12
2022-12-25T20:18:06.464Z,27.50
2022-12-25T20:21:14.090Z,25.40
2022-12-25T20:24:16.920Z,28.55
2022-12-25T20:27:19.825Z,26.45
2022-12-25T20:30:22.690Z,24.52
2022-12-25T20:33:25.241Z,27.67
2022-12-25T20:36:32.776Z,26.03
2022-12-25T20:39:38.960Z,30.27
2022-12-25T20:42:43.285Z,28.70
2022-12-25T20:45:46.064Z,29.40
2022-12-25T20:48:48.890Z,28.38
2022-12-25T20:51:51.433Z,27.83
2022-12-25T20:54:54.283Z,28.55
2022-12-25T20:57:56.810Z,29.25
2022-12-25T21:00:59.818Z,27.00
2022-12-25T21:04:02.909Z,32.67
2022-12-25T21:07:06.037Z,30.33
2022-12-25T21:10:09.071Z,30.23
2022-12-25T21:13:11.979Z,35.13
2022-12-25T21:16:17.314Z,34.53
2022-12-25T21:19:20.209Z,35.33
2022-12-25T21:22:22.816Z,32.70
2022-12-25T21:25:27.041Z,35.15
2022-12-25T21:28:30.241Z,34.50
2022-12-25T21:31:56.311Z,31.37
2022-12-25T21:34:58.866Z,30.48
2022-12-25T21:38:01.725Z,36.70
2022-12-25T21:41:06.919Z,29.67
2022-12-25T21:44:11.076Z,37.08
2022-12-25T21:47:13.621Z,31.15
2022-12-25T21:50:39.181Z,34.03
2022-12-25T21:53:42.050Z,30.93
2022-12-25T21:56:47.312Z,33.10
2022-12-25T21:59:49.873Z,31.37
2022-12-25T22:02:52.761Z,36.20
2022-12-25T22:06:21.418Z,33.42
2022-12-25T22:09:24.797Z,35.03
2022-12-25T22:12:46.448Z,36.05
2022-12-25T22:16:07.538Z,37.28
2022-12-25T22:19:28.943Z,33.80
2022-12-25T22:22:31.840Z,30.42
2022-12-25T22:25:34.658Z,35.50
2022-12-25T22:28:37.307Z,34.40
2022-12-25T22:31:46.482Z,40.53
2022-12-25T22:34:49.634Z,37.72
2022-12-25T22:37:54.005Z,35.60
2022-12-25T22:40:56.844Z,35.03
2022-12-25T22:44:17.039Z,34.92
2022-12-25T22:47:20.598Z,40.80
2022-12-25T22:50:23.541Z,33.97
2022-12-25T22:53:26.207Z,37.25
2022-12-25T22:56:29.119Z,38.33
2022-12-25T22:59:32.958Z,34.45
2022-12-25T23:02:36.003Z,35.03
2022-12-25T23:05:38.887Z,38.50
2022-12-25T23:08:41.747Z,36.25
2022-12-25T23:11:45.290Z,33.20
2022-12-25T23:14:48.135Z,38.03
2022-12-25T23:18:09.400Z,39.88
2022-12-25T23:21:35.597Z,39.13
2022-12-25T23:24:56.703Z,36.05
2022-12-25T23:27:59.592Z,45.47
2022-12-25T23:31:02.618Z,42.35
2022-12-25T23:34:06.574Z,39.58
2022-12-25T23:37:10.568Z,42.33
2022-12-25T23:40:13.518Z,47.58
2022-12-25T23:43:16.227Z,45.80
2022-12-25T23:46:19.901Z,43.03
2022-12-25T23:49:23.934Z,39.03
2022-12-25T23:52:26.788Z,47.75
2022-12-25T23:55:29.573Z,44.53
2022-12-25T23:58:32.571Z,45.27
